sensor_id;sensor_type;location;lat;lon;timestamp;P1;durP1;ratioP1;P2;durP2;ratioP2
68010;SDS011;54794;48.348;7.878;2023-05-07T00:00:01;0.90;;;0.52;;
68010;SDS011;54794;48.348;7.878;2023-05-07T00:02:33;0.77;;;0.57;;
68010;SDS011;54794;48.348;7.878;2023-05-07T00:05:01;0.98;;;0.40;;
68010;SDS011;54794;48.348;7.878;2023-05-07T00:07:29;0.50;;;0.45;;
68010;SDS011;54794;48.348;7.878;2023-05-07T00:09:56;0.60;;;0.47;;
68010;SDS011;54794;48.348;7.878;2023-05-07T00:12:23;1.25;;;0.50;;
68010;SDS011;54794;48.348;7.878;2023-05-07T00:14:50;2.55;;;0.50;;
68010;SDS011;54794;48.348;7.878;2023-05-07T00:17:16;0.45;;;0.30;;
68010;SDS011;54794;48.348;7.878;2023-05-07T00:19:43;1.63;;;0.50;;
68010;SDS011;54794;48.348;7.878;2023-05-07T00:22:10;0.47;;;0.30;;
68010;SDS011;54794;48.348;7.878;2023-05-07T00:24:37;3.03;;;0.50;;
68010;SDS011;54794;48.348;7.878;2023-05-07T00:27:04;0.70;;;0.40;;
68010;SDS011;54794;48.348;7.878;2023-05-07T00:29:31;2.17;;;0.50;;
68010;SDS011;54794;48.348;7.878;2023-05-07T00:31:58;0.55;;;0.30;;
68010;SDS011;54794;48.348;7.878;2023-05-07T00:34:25;0.60;;;0.40;;
68010;SDS011;54794;48.348;7.878;2023-05-07T00:36:52;0.80;;;0.50;;
68010;SDS011;54794;48.348;7.878;2023-05-07T00:39:19;0.70;;;0.50;;
68010;SDS011;54794;48.348;7.878;2023-05-07T00:41:46;1.02;;;0.50;;
68010;SDS011;54794;48.348;7.878;2023-05-07T00:44:13;1.65;;;0.50;;
68010;SDS011;54794;48.348;7.878;2023-05-07T00:46:40;0.82;;;0.40;;
68010;SDS011;54794;48.348;7.878;2023-05-07T00:49:07;1.48;;;0.70;;
68010;SDS011;54794;48.348;7.878;2023-05-07T00:51:35;0.77;;;0.47;;
68010;SDS011;54794;48.348;7.878;2023-05-07T00:54:02;0.95;;;0.40;;
68010;SDS011;54794;48.348;7.878;2023-05-07T00:56:29;1.52;;;0.52;;
68010;SDS011;54794;48.348;7.878;2023-05-07T00:58:57;0.77;;;0.45;;
68010;SDS011;54794;48.348;7.878;2023-05-07T01:03:52;0.50;;;0.30;;
68010;SDS011;54794;48.348;7.878;2023-05-07T01:06:20;0.30;;;0.30;;
68010;SDS011;54794;48.348;7.878;2023-05-07T01:08:52;0.80;;;0.50;;
68010;SDS011;54794;48.348;7.878;2023-05-07T01:11:22;1.70;;;0.57;;
68010;SDS011;54794;48.348;7.878;2023-05-07T01:13:51;0.73;;;0.50;;
68010;SDS011;54794;48.348;7.878;2023-05-07T01:16:19;0.63;;;0.52;;
68010;SDS011;54794;48.348;7.878;2023-05-07T01:18:46;0.68;;;0.40;;
68010;SDS011;54794;48.348;7.878;2023-05-07T01:21:15;1.00;;;0.60;;
68010;SDS011;54794;48.348;7.878;2023-05-07T01:23:44;0.80;;;0.63;;
68010;SDS011;54794;48.348;7.878;2023-05-07T01:26:12;1.42;;;0.55;;
68010;SDS011;54794;48.348;7.878;2023-05-07T01:28:39;0.63;;;0.50;;
68010;SDS011;54794;48.348;7.878;2023-05-07T01:31:06;0.60;;;0.40;;
68010;SDS011;54794;48.348;7.878;2023-05-07T01:33:35;0.77;;;0.50;;
68010;SDS011;54794;48.348;7.878;2023-05-07T01:36:30;2.35;;;0.50;;
68010;SDS011;54794;48.348;7.878;2023-05-07T01:38:59;0.47;;;0.47;;
68010;SDS011;54794;48.348;7.878;2023-05-07T01:41:40;1.65;;;0.70;;
68010;SDS011;54794;48.348;7.878;2023-05-07T01:44:10;0.57;;;0.40;;
68010;SDS011;54794;48.348;7.878;2023-05-07T01:46:40;1.15;;;0.50;;
68010;SDS011;54794;48.348;7.878;2023-05-07T01:49:07;0.52;;;0.35;;
68010;SDS011;54794;48.348;7.878;2023-05-07T01:51:35;0.63;;;0.40;;
68010;SDS011;54794;48.348;7.878;2023-05-07T01:56:30;0.70;;;0.45;;
68010;SDS011;54794;48.348;7.878;2023-05-07T02:01:24;0.90;;;0.45;;
68010;SDS011;54794;48.348;7.878;2023-05-07T02:03:56;0.88;;;0.60;;
68010;SDS011;54794;48.348;7.878;2023-05-07T02:06:23;0.63;;;0.57;;
68010;SDS011;54794;48.348;7.878;2023-05-07T02:08:50;1.35;;;0.40;;
68010;SDS011;54794;48.348;7.878;2023-05-07T02:11:17;0.47;;;0.47;;
68010;SDS011;54794;48.348;7.878;2023-05-07T02:13:44;0.73;;;0.55;;
68010;SDS011;54794;48.348;7.878;2023-05-07T02:16:11;0.98;;;0.40;;
68010;SDS011;54794;48.348;7.878;2023-05-07T02:18:46;0.73;;;0.40;;
68010;SDS011;54794;48.348;7.878;2023-05-07T02:21:13;0.60;;;0.40;;
68010;SDS011;54794;48.348;7.878;2023-05-07T02:23:40;1.08;;;0.60;;
68010;SDS011;54794;48.348;7.878;2023-05-07T02:26:07;3.75;;;0.77;;
68010;SDS011;54794;48.348;7.878;2023-05-07T02:28:33;0.30;;;0.30;;
68010;SDS011;54794;48.348;7.878;2023-05-07T02:31:03;0.77;;;0.40;;
68010;SDS011;54794;48.348;7.878;2023-05-07T02:33:30;0.65;;;0.47;;
68010;SDS011;54794;48.348;7.878;2023-05-07T02:36:05;1.13;;;0.50;;
68010;SDS011;54794;48.348;7.878;2023-05-07T02:38:33;0.47;;;0.40;;
68010;SDS011;54794;48.348;7.878;2023-05-07T02:41:01;0.55;;;0.50;;
68010;SDS011;54794;48.348;7.878;2023-05-07T02:43:28;0.60;;;0.50;;
68010;SDS011;54794;48.348;7.878;2023-05-07T02:46:05;0.60;;;0.43;;
68010;SDS011;54794;48.348;7.878;2023-05-07T02:48:34;0.80;;;0.45;;
68010;SDS011;54794;48.348;7.878;2023-05-07T02:51:02;0.73;;;0.50;;
68010;SDS011;54794;48.348;7.878;2023-05-07T02:53:31;0.70;;;0.52;;
68010;SDS011;54794;48.348;7.878;2023-05-07T02:55:59;1.27;;;0.47;;
68010;SDS011;54794;48.348;7.878;2023-05-07T02:58:27;0.80;;;0.50;;
68010;SDS011;54794;48.348;7.878;2023-05-07T03:00:54;1.15;;;0.60;;
68010;SDS011;54794;48.348;7.878;2023-05-07T03:03:21;0.50;;;0.50;;
68010;SDS011;54794;48.348;7.878;2023-05-07T03:05:49;0.80;;;0.50;;
68010;SDS011;54794;48.348;7.878;2023-05-07T03:08:16;1.13;;;0.65;;
68010;SDS011;54794;48.348;7.878;2023-05-07T03:10:43;0.93;;;0.60;;
68010;SDS011;54794;48.348;7.878;2023-05-07T03:13:10;0.40;;;0.40;;
68010;SDS011;54794;48.348;7.878;2023-05-07T03:15:37;0.38;;;0.38;;
68010;SDS011;54794;48.348;7.878;2023-05-07T03:18:04;0.70;;;0.50;;
68010;SDS011;54794;48.348;7.878;2023-05-07T03:20:31;0.82;;;0.40;;
68010;SDS011;54794;48.348;7.878;2023-05-07T03:22:58;0.50;;;0.43;;
68010;SDS011;54794;48.348;7.878;2023-05-07T03:25:25;1.08;;;0.45;;
68010;SDS011;54794;48.348;7.878;2023-05-07T03:27:52;0.90;;;0.47;;
68010;SDS011;54794;48.348;7.878;2023-05-07T03:30:19;0.93;;;0.55;;
68010;SDS011;54794;48.348;7.878;2023-05-07T03:32:46;0.55;;;0.40;;
68010;SDS011;54794;48.348;7.878;2023-05-07T03:35:15;1.17;;;0.70;;
68010;SDS011;54794;48.348;7.878;2023-05-07T03:37:43;0.70;;;0.50;;
68010;SDS011;54794;48.348;7.878;2023-05-07T03:40:10;0.60;;;0.47;;
68010;SDS011;54794;48.348;7.878;2023-05-07T03:42:39;1.35;;;0.60;;
68010;SDS011;54794;48.348;7.878;2023-05-07T03:45:07;0.70;;;0.38;;
68010;SDS011;54794;48.348;7.878;2023-05-07T03:47:35;1.88;;;0.50;;
68010;SDS011;54794;48.348;7.878;2023-05-07T03:50:02;0.40;;;0.35;;
68010;SDS011;54794;48.348;7.878;2023-05-07T03:52:31;0.77;;;0.50;;
68010;SDS011;54794;48.348;7.878;2023-05-07T03:55:34;0.70;;;0.50;;
68010;SDS011;54794;48.348;7.878;2023-05-07T03:58:01;2.45;;;0.50;;
68010;SDS011;54794;48.348;7.878;2023-05-07T04:00:28;1.08;;;0.55;;
68010;SDS011;54794;48.348;7.878;2023-05-07T04:03:04;1.30;;;0.40;;
68010;SDS011;54794;48.348;7.878;2023-05-07T04:07:59;0.70;;;0.32;;
68010;SDS011;54794;48.348;7.878;2023-05-07T04:10:27;0.80;;;0.50;;
68010;SDS011;54794;48.348;7.878;2023-05-07T04:12:55;0.60;;;0.50;;
68010;SDS011;54794;48.348;7.878;2023-05-07T04:18:14;0.88;;;0.40;;
68010;SDS011;54794;48.348;7.878;2023-05-07T04:20:41;0.80;;;0.40;;
68010;SDS011;54794;48.348;7.878;2023-05-07T04:23:08;0.52;;;0.40;;
68010;SDS011;54794;48.348;7.878;2023-05-07T04:25:35;0.77;;;0.43;;
68010;SDS011;54794;48.348;7.878;2023-05-07T04:28:02;1.13;;;0.47;;
68010;SDS011;54794;48.348;7.878;2023-05-07T04:30:29;1.55;;;0.50;;
68010;SDS011;54794;48.348;7.878;2023-05-07T04:32:56;0.70;;;0.45;;
68010;SDS011;54794;48.348;7.878;2023-05-07T04:35:23;2.40;;;0.50;;
68010;SDS011;54794;48.348;7.878;2023-05-07T04:37:50;1.23;;;0.50;;
68010;SDS011;54794;48.348;7.878;2023-05-07T04:40:17;1.52;;;0.60;;
68010;SDS011;54794;48.348;7.878;2023-05-07T04:42:44;1.33;;;0.50;;
68010;SDS011;54794;48.348;7.878;2023-05-07T04:45:11;0.95;;;0.50;;
68010;SDS011;54794;48.348;7.878;2023-05-07T04:47:38;1.10;;;0.57;;
68010;SDS011;54794;48.348;7.878;2023-05-07T04:50:06;1.65;;;0.55;;
68010;SDS011;54794;48.348;7.878;2023-05-07T04:52:34;1.00;;;0.60;;
68010;SDS011;54794;48.348;7.878;2023-05-07T04:55:01;0.77;;;0.55;;
68010;SDS011;54794;48.348;7.878;2023-05-07T04:57:28;0.77;;;0.55;;
68010;SDS011;54794;48.348;7.878;2023-05-07T04:59:55;0.40;;;0.40;;
68010;SDS011;54794;48.348;7.878;2023-05-07T05:02:23;0.43;;;0.40;;
68010;SDS011;54794;48.348;7.878;2023-05-07T05:04:50;0.93;;;0.50;;
68010;SDS011;54794;48.348;7.878;2023-05-07T05:07:17;0.50;;;0.40;;
68010;SDS011;54794;48.348;7.878;2023-05-07T05:10:04;0.75;;;0.50;;
68010;SDS011;54794;48.348;7.878;2023-05-07T05:16:18;0.47;;;0.30;;
68010;SDS011;54794;48.348;7.878;2023-05-07T05:18:55;0.70;;;0.50;;
68010;SDS011;54794;48.348;7.878;2023-05-07T05:21:44;0.70;;;0.40;;
68010;SDS011;54794;48.348;7.878;2023-05-07T05:24:48;0.60;;;0.50;;
68010;SDS011;54794;48.348;7.878;2023-05-07T05:27:33;0.60;;;0.40;;
68010;SDS011;54794;48.348;7.878;2023-05-07T05:30:19;0.73;;;0.40;;
68010;SDS011;54794;48.348;7.878;2023-05-07T05:33:32;2.70;;;0.50;;
68010;SDS011;54794;48.348;7.878;2023-05-07T05:36:45;0.55;;;0.40;;
68010;SDS011;54794;48.348;7.878;2023-05-07T05:39:56;0.93;;;0.40;;
68010;SDS011;54794;48.348;7.878;2023-05-07T05:42:51;0.80;;;0.55;;
68010;SDS011;54794;48.348;7.878;2023-05-07T05:46:17;1.02;;;0.52;;
68010;SDS011;54794;48.348;7.878;2023-05-07T05:49:13;0.95;;;0.47;;
68010;SDS011;54794;48.348;7.878;2023-05-07T05:52:03;3.20;;;0.70;;
68010;SDS011;54794;48.348;7.878;2023-05-07T05:55:11;0.80;;;0.52;;
68010;SDS011;54794;48.348;7.878;2023-05-07T05:57:44;0.68;;;0.38;;
68010;SDS011;54794;48.348;7.878;2023-05-07T06:00:39;2.38;;;0.55;;
68010;SDS011;54794;48.348;7.878;2023-05-07T06:03:41;0.52;;;0.40;;
68010;SDS011;54794;48.348;7.878;2023-05-07T06:06:55;0.50;;;0.38;;
68010;SDS011;54794;48.348;7.878;2023-05-07T06:09:51;1.17;;;0.63;;
68010;SDS011;54794;48.348;7.878;2023-05-07T06:12:40;0.60;;;0.30;;
68010;SDS011;54794;48.348;7.878;2023-05-07T06:15:17;0.35;;;0.30;;
68010;SDS011;54794;48.348;7.878;2023-05-07T06:18:33;1.45;;;0.70;;
68010;SDS011;54794;48.348;7.878;2023-05-07T06:21:38;0.85;;;0.50;;
68010;SDS011;54794;48.348;7.878;2023-05-07T06:24:17;0.85;;;0.50;;
68010;SDS011;54794;48.348;7.878;2023-05-07T06:27:05;0.80;;;0.60;;
68010;SDS011;54794;48.348;7.878;2023-05-07T06:30:33;1.08;;;0.50;;
68010;SDS011;54794;48.348;7.878;2023-05-07T06:33:17;0.90;;;0.65;;
68010;SDS011;54794;48.348;7.878;2023-05-07T06:36:12;0.95;;;0.60;;
68010;SDS011;54794;48.348;7.878;2023-05-07T06:38:48;0.90;;;0.60;;
68010;SDS011;54794;48.348;7.878;2023-05-07T06:41:41;1.33;;;0.70;;
68010;SDS011;54794;48.348;7.878;2023-05-07T06:44:41;1.42;;;1.10;;
68010;SDS011;54794;48.348;7.878;2023-05-07T06:47:40;1.50;;;1.10;;
68010;SDS011;54794;48.348;7.878;2023-05-07T06:50:31;1.27;;;1.00;;
68010;SDS011;54794;48.348;7.878;2023-05-07T06:53:24;2.22;;;1.02;;
68010;SDS011;54794;48.348;7.878;2023-05-07T06:56:27;1.63;;;1.00;;
68010;SDS011;54794;48.348;7.878;2023-05-07T06:59:17;1.08;;;0.75;;
68010;SDS011;54794;48.348;7.878;2023-05-07T07:01:57;1.13;;;0.70;;
68010;SDS011;54794;48.348;7.878;2023-05-07T07:04:54;1.65;;;1.00;;
68010;SDS011;54794;48.348;7.878;2023-05-07T07:07:29;1.10;;;0.60;;
68010;SDS011;54794;48.348;7.878;2023-05-07T07:10:07;1.35;;;0.80;;
68010;SDS011;54794;48.348;7.878;2023-05-07T07:13:14;2.67;;;0.65;;
68010;SDS011;54794;48.348;7.878;2023-05-07T07:16:12;0.75;;;0.55;;
68010;SDS011;54794;48.348;7.878;2023-05-07T07:18:56;2.13;;;0.80;;
68010;SDS011;54794;48.348;7.878;2023-05-07T07:22:03;5.00;;;0.70;;
68010;SDS011;54794;48.348;7.878;2023-05-07T07:24:43;1.30;;;0.70;;
68010;SDS011;54794;48.348;7.878;2023-05-07T07:27:49;1.33;;;0.80;;
68010;SDS011;54794;48.348;7.878;2023-05-07T07:30:35;1.88;;;0.80;;
68010;SDS011;54794;48.348;7.878;2023-05-07T07:33:31;2.83;;;0.88;;
68010;SDS011;54794;48.348;7.878;2023-05-07T07:36:23;0.75;;;0.63;;
68010;SDS011;54794;48.348;7.878;2023-05-07T07:39:16;0.68;;;0.60;;
68010;SDS011;54794;48.348;7.878;2023-05-07T07:42:15;0.75;;;0.65;;
68010;SDS011;54794;48.348;7.878;2023-05-07T07:44:55;1.00;;;0.60;;
68010;SDS011;54794;48.348;7.878;2023-05-07T07:47:41;0.65;;;0.60;;
68010;SDS011;54794;48.348;7.878;2023-05-07T07:50:22;1.00;;;0.90;;
68010;SDS011;54794;48.348;7.878;2023-05-07T07:55:42;1.45;;;0.82;;
68010;SDS011;54794;48.348;7.878;2023-05-07T07:58:34;1.20;;;0.70;;
68010;SDS011;54794;48.348;7.878;2023-05-07T08:01:20;2.97;;;0.90;;
68010;SDS011;54794;48.348;7.878;2023-05-07T08:07:15;1.40;;;0.70;;
68010;SDS011;54794;48.348;7.878;2023-05-07T08:10:26;1.00;;;0.80;;
68010;SDS011;54794;48.348;7.878;2023-05-07T08:13:29;1.10;;;0.70;;
68010;SDS011;54794;48.348;7.878;2023-05-07T08:16:19;1.40;;;0.70;;
68010;SDS011;54794;48.348;7.878;2023-05-07T08:19:19;0.73;;;0.50;;
68010;SDS011;54794;48.348;7.878;2023-05-07T08:22:23;1.90;;;0.70;;
68010;SDS011;54794;48.348;7.878;2023-05-07T08:25:01;1.30;;;0.75;;
68010;SDS011;54794;48.348;7.878;2023-05-07T08:27:38;0.98;;;0.65;;
68010;SDS011;54794;48.348;7.878;2023-05-07T08:30:32;0.70;;;0.60;;
68010;SDS011;54794;48.348;7.878;2023-05-07T08:33:33;0.73;;;0.63;;
68010;SDS011;54794;48.348;7.878;2023-05-07T08:36:23;1.83;;;0.90;;
68010;SDS011;54794;48.348;7.878;2023-05-07T08:39:10;0.75;;;0.60;;
68010;SDS011;54794;48.348;7.878;2023-05-07T08:41:52;1.20;;;0.80;;
68010;SDS011;54794;48.348;7.878;2023-05-07T08:44:50;1.42;;;0.70;;
68010;SDS011;54794;48.348;7.878;2023-05-07T08:47:46;1.50;;;0.75;;
68010;SDS011;54794;48.348;7.878;2023-05-07T08:50:51;1.58;;;0.70;;
68010;SDS011;54794;48.348;7.878;2023-05-07T08:53:45;1.00;;;0.80;;
68010;SDS011;54794;48.348;7.878;2023-05-07T08:56:39;1.70;;;0.90;;
68010;SDS011;54794;48.348;7.878;2023-05-07T08:59:53;1.25;;;0.70;;
68010;SDS011;54794;48.348;7.878;2023-05-07T09:03:11;1.55;;;0.70;;
68010;SDS011;54794;48.348;7.878;2023-05-07T09:06:35;1.42;;;0.70;;
68010;SDS011;54794;48.348;7.878;2023-05-07T09:09:23;1.05;;;0.60;;
68010;SDS011;54794;48.348;7.878;2023-05-07T09:12:04;1.25;;;0.73;;
68010;SDS011;54794;48.348;7.878;2023-05-07T09:15:11;1.05;;;0.73;;
68010;SDS011;54794;48.348;7.878;2023-05-07T09:17:39;1.17;;;0.80;;
68010;SDS011;54794;48.348;7.878;2023-05-07T09:20:30;0.70;;;0.65;;
68010;SDS011;54794;48.348;7.878;2023-05-07T09:26:15;1.00;;;0.65;;
68010;SDS011;54794;48.348;7.878;2023-05-07T09:29:21;1.77;;;0.90;;
68010;SDS011;54794;48.348;7.878;2023-05-07T09:32:15;1.77;;;0.93;;
68010;SDS011;54794;48.348;7.878;2023-05-07T09:34:57;0.98;;;0.70;;
68010;SDS011;54794;48.348;7.878;2023-05-07T09:37:50;2.65;;;0.80;;
68010;SDS011;54794;48.348;7.878;2023-05-07T09:40:43;0.80;;;0.60;;
68010;SDS011;54794;48.348;7.878;2023-05-07T09:43:46;1.58;;;0.80;;
68010;SDS011;54794;48.348;7.878;2023-05-07T09:46:39;0.85;;;0.73;;
68010;SDS011;54794;48.348;7.878;2023-05-07T09:49:24;0.80;;;0.60;;
68010;SDS011;54794;48.348;7.878;2023-05-07T09:52:10;1.08;;;0.73;;
68010;SDS011;54794;48.348;7.878;2023-05-07T09:54:51;0.80;;;0.75;;
68010;SDS011;54794;48.348;7.878;2023-05-07T09:57:25;1.00;;;0.80;;
68010;SDS011;54794;48.348;7.878;2023-05-07T10:00:02;1.35;;;0.90;;
68010;SDS011;54794;48.348;7.878;2023-05-07T10:02:56;0.88;;;0.60;;
68010;SDS011;54794;48.348;7.878;2023-05-07T10:05:49;1.00;;;0.70;;
68010;SDS011;54794;48.348;7.878;2023-05-07T10:08:33;0.95;;;0.75;;
68010;SDS011;54794;48.348;7.878;2023-05-07T10:11:25;1.33;;;0.77;;
68010;SDS011;54794;48.348;7.878;2023-05-07T10:14:20;1.02;;;0.75;;
68010;SDS011;54794;48.348;7.878;2023-05-07T10:17:02;1.25;;;0.80;;
68010;SDS011;54794;48.348;7.878;2023-05-07T10:19:59;2.08;;;0.88;;
68010;SDS011;54794;48.348;7.878;2023-05-07T10:22:45;1.10;;;0.70;;
68010;SDS011;54794;48.348;7.878;2023-05-07T10:25:47;1.40;;;0.85;;
68010;SDS011;54794;48.348;7.878;2023-05-07T10:28:38;1.02;;;0.70;;
68010;SDS011;54794;48.348;7.878;2023-05-07T10:37:40;0.55;;;0.52;;
68010;SDS011;54794;48.348;7.878;2023-05-07T10:40:08;0.93;;;0.73;;
68010;SDS011;54794;48.348;7.878;2023-05-07T10:42:36;1.00;;;0.88;;
68010;SDS011;54794;48.348;7.878;2023-05-07T10:45:13;1.23;;;0.88;;
68010;SDS011;54794;48.348;7.878;2023-05-07T10:48:05;2.70;;;1.20;;
68010;SDS011;54794;48.348;7.878;2023-05-07T10:51:17;2.88;;;1.02;;
68010;SDS011;54794;48.348;7.878;2023-05-07T10:53:48;1.45;;;0.98;;
68010;SDS011;54794;48.348;7.878;2023-05-07T10:56:35;1.35;;;0.98;;
68010;SDS011;54794;48.348;7.878;2023-05-07T11:04:24;1.70;;;0.93;;
68010;SDS011;54794;48.348;7.878;2023-05-07T11:15:06;1.20;;;0.80;;
68010;SDS011;54794;48.348;7.878;2023-05-07T11:21:07;1.48;;;0.93;;
68010;SDS011;54794;48.348;7.878;2023-05-07T11:26:21;1.00;;;0.80;;
68010;SDS011;54794;48.348;7.878;2023-05-07T11:29:03;1.00;;;0.88;;
68010;SDS011;54794;48.348;7.878;2023-05-07T11:32:32;1.02;;;0.80;;
68010;SDS011;54794;48.348;7.878;2023-05-07T11:35:19;1.48;;;1.02;;
68010;SDS011;54794;48.348;7.878;2023-05-07T11:38:03;1.88;;;1.38;;
68010;SDS011;54794;48.348;7.878;2023-05-07T11:40:31;3.35;;;1.02;;
68010;SDS011;54794;48.348;7.878;2023-05-07T11:42:57;2.83;;;1.45;;
68010;SDS011;54794;48.348;7.878;2023-05-07T11:45:24;1.88;;;0.90;;
68010;SDS011;54794;48.348;7.878;2023-05-07T11:47:51;1.25;;;0.90;;
68010;SDS011;54794;48.348;7.878;2023-05-07T11:50:18;1.52;;;1.20;;
68010;SDS011;54794;48.348;7.878;2023-05-07T11:52:55;2.45;;;1.50;;
68010;SDS011;54794;48.348;7.878;2023-05-07T11:55:23;1.50;;;1.10;;
68010;SDS011;54794;48.348;7.878;2023-05-07T11:57:54;2.17;;;1.00;;
68010;SDS011;54794;48.348;7.878;2023-05-07T12:00:21;1.85;;;0.95;;
68010;SDS011;54794;48.348;7.878;2023-05-07T12:02:49;1.52;;;0.90;;
68010;SDS011;54794;48.348;7.878;2023-05-07T12:07:43;0.90;;;0.57;;
68010;SDS011;54794;48.348;7.878;2023-05-07T12:12:39;1.80;;;0.80;;
68010;SDS011;54794;48.348;7.878;2023-05-07T12:15:18;1.92;;;0.75;;
68010;SDS011;54794;48.348;7.878;2023-05-07T12:17:49;1.58;;;0.77;;
68010;SDS011;54794;48.348;7.878;2023-05-07T12:20:18;0.90;;;0.70;;
68010;SDS011;54794;48.348;7.878;2023-05-07T12:22:46;1.58;;;0.93;;
68010;SDS011;54794;48.348;7.878;2023-05-07T12:25:18;1.85;;;0.80;;
68010;SDS011;54794;48.348;7.878;2023-05-07T12:27:50;1.30;;;0.93;;
68010;SDS011;54794;48.348;7.878;2023-05-07T12:30:19;1.70;;;0.70;;
68010;SDS011;54794;48.348;7.878;2023-05-07T12:32:46;0.80;;;0.70;;
68010;SDS011;54794;48.348;7.878;2023-05-07T12:37:40;1.10;;;0.70;;
68010;SDS011;54794;48.348;7.878;2023-05-07T12:40:08;1.33;;;0.63;;
68010;SDS011;54794;48.348;7.878;2023-05-07T12:42:38;1.48;;;0.75;;
68010;SDS011;54794;48.348;7.878;2023-05-07T12:45:12;1.88;;;0.90;;
68010;SDS011;54794;48.348;7.878;2023-05-07T12:47:44;1.17;;;0.80;;
68010;SDS011;54794;48.348;7.878;2023-05-07T12:50:12;1.70;;;0.88;;
68010;SDS011;54794;48.348;7.878;2023-05-07T12:52:45;1.30;;;0.75;;
68010;SDS011;54794;48.348;7.878;2023-05-07T12:55:15;0.68;;;0.60;;
68010;SDS011;54794;48.348;7.878;2023-05-07T12:57:45;1.73;;;0.98;;
68010;SDS011;54794;48.348;7.878;2023-05-07T13:00:15;1.58;;;1.02;;
68010;SDS011;54794;48.348;7.878;2023-05-07T13:02:43;1.02;;;0.73;;
68010;SDS011;54794;48.348;7.878;2023-05-07T13:05:12;0.80;;;0.63;;
68010;SDS011;54794;48.348;7.878;2023-05-07T13:07:39;0.90;;;0.70;;
68010;SDS011;54794;48.348;7.878;2023-05-07T13:12:34;1.05;;;0.70;;
68010;SDS011;54794;48.348;7.878;2023-05-07T13:17:29;2.58;;;0.90;;
68010;SDS011;54794;48.348;7.878;2023-05-07T13:19:58;1.38;;;0.80;;
68010;SDS011;54794;48.348;7.878;2023-05-07T13:24:52;1.27;;;0.80;;
68010;SDS011;54794;48.348;7.878;2023-05-07T13:27:20;1.00;;;0.70;;
68010;SDS011;54794;48.348;7.878;2023-05-07T13:29:47;1.50;;;0.80;;
68010;SDS011;54794;48.348;7.878;2023-05-07T13:32:40;0.40;;;0.40;;
68010;SDS011;54794;48.348;7.878;2023-05-07T13:35:24;0.82;;;0.65;;
68010;SDS011;54794;48.348;7.878;2023-05-07T13:38:03;1.80;;;0.50;;
68010;SDS011;54794;48.348;7.878;2023-05-07T13:41:18;0.47;;;0.40;;
68010;SDS011;54794;48.348;7.878;2023-05-07T13:43:58;0.70;;;0.50;;
68010;SDS011;54794;48.348;7.878;2023-05-07T13:47:04;1.63;;;0.60;;
68010;SDS011;54794;48.348;7.878;2023-05-07T13:49:49;0.60;;;0.40;;
68010;SDS011;54794;48.348;7.878;2023-05-07T13:52:27;0.85;;;0.30;;
68010;SDS011;54794;48.348;7.878;2023-05-07T13:55:04;0.52;;;0.30;;
68010;SDS011;54794;48.348;7.878;2023-05-07T13:57:56;0.22;;;0.20;;
68010;SDS011;54794;48.348;7.878;2023-05-07T14:00:35;0.22;;;0.20;;
68010;SDS011;54794;48.348;7.878;2023-05-07T14:03:17;1.52;;;0.40;;
68010;SDS011;54794;48.348;7.878;2023-05-07T14:05:50;1.58;;;0.20;;
68010;SDS011;54794;48.348;7.878;2023-05-07T14:08:32;0.28;;;0.20;;
68010;SDS011;54794;48.348;7.878;2023-05-07T14:11:04;0.20;;;0.17;;
68010;SDS011;54794;48.348;7.878;2023-05-07T14:13:38;0.40;;;0.20;;
68010;SDS011;54794;48.348;7.878;2023-05-07T14:16:11;0.10;;;0.10;;
68010;SDS011;54794;48.348;7.878;2023-05-07T14:21:26;0.10;;;0.10;;
68010;SDS011;54794;48.348;7.878;2023-05-07T14:23:56;0.10;;;0.10;;
68010;SDS011;54794;48.348;7.878;2023-05-07T14:26:27;0.35;;;0.17;;
68010;SDS011;54794;48.348;7.878;2023-05-07T14:29:09;0.20;;;0.20;;
68010;SDS011;54794;48.348;7.878;2023-05-07T14:31:42;0.15;;;0.10;;
68010;SDS011;54794;48.348;7.878;2023-05-07T14:34:20;0.43;;;0.10;;
68010;SDS011;54794;48.348;7.878;2023-05-07T14:37:05;0.20;;;0.20;;
68010;SDS011;54794;48.348;7.878;2023-05-07T14:39:53;0.22;;;0.20;;
68010;SDS011;54794;48.348;7.878;2023-05-07T14:42:45;0.35;;;0.20;;
68010;SDS011;54794;48.348;7.878;2023-05-07T14:45:29;0.38;;;0.20;;
68010;SDS011;54794;48.348;7.878;2023-05-07T14:48:07;0.25;;;0.13;;
68010;SDS011;54794;48.348;7.878;2023-05-07T14:50:53;0.28;;;0.22;;
68010;SDS011;54794;48.348;7.878;2023-05-07T14:53:45;0.22;;;0.22;;
68010;SDS011;54794;48.348;7.878;2023-05-07T14:56:29;0.50;;;0.22;;
68010;SDS011;54794;48.348;7.878;2023-05-07T14:59:05;0.65;;;0.22;;
68010;SDS011;54794;48.348;7.878;2023-05-07T15:01:34;0.43;;;0.10;;
68010;SDS011;54794;48.348;7.878;2023-05-07T15:04:12;0.20;;;0.20;;
68010;SDS011;54794;48.348;7.878;2023-05-07T15:07:14;0.30;;;0.30;;
68010;SDS011;54794;48.348;7.878;2023-05-07T15:10:12;0.20;;;0.20;;
68010;SDS011;54794;48.348;7.878;2023-05-07T15:12:57;0.30;;;0.20;;
68010;SDS011;54794;48.348;7.878;2023-05-07T15:15:41;1.48;;;0.20;;
68010;SDS011;54794;48.348;7.878;2023-05-07T15:18:23;0.47;;;0.30;;
68010;SDS011;54794;48.348;7.878;2023-05-07T15:21:11;0.50;;;0.20;;
68010;SDS011;54794;48.348;7.878;2023-05-07T15:23:56;0.30;;;0.20;;
68010;SDS011;54794;48.348;7.878;2023-05-07T15:26:57;0.30;;;0.20;;
68010;SDS011;54794;48.348;7.878;2023-05-07T15:29:29;0.30;;;0.20;;
68010;SDS011;54794;48.348;7.878;2023-05-07T15:31:59;0.93;;;0.30;;
68010;SDS011;54794;48.348;7.878;2023-05-07T15:34:42;0.40;;;0.35;;
68010;SDS011;54794;48.348;7.878;2023-05-07T15:37:28;0.30;;;0.30;;
68010;SDS011;54794;48.348;7.878;2023-05-07T15:40:30;0.22;;;0.20;;
68010;SDS011;54794;48.348;7.878;2023-05-07T15:43:19;0.82;;;0.40;;
68010;SDS011;54794;48.348;7.878;2023-05-07T15:46:09;0.68;;;0.38;;
68010;SDS011;54794;48.348;7.878;2023-05-07T15:48:46;0.30;;;0.30;;
68010;SDS011;54794;48.348;7.878;2023-05-07T15:52:14;0.32;;;0.30;;
68010;SDS011;54794;48.348;7.878;2023-05-07T15:54:58;0.32;;;0.22;;
68010;SDS011;54794;48.348;7.878;2023-05-07T15:57:55;0.47;;;0.30;;
68010;SDS011;54794;48.348;7.878;2023-05-07T16:01:11;0.80;;;0.50;;
68010;SDS011;54794;48.348;7.878;2023-05-07T16:04:03;0.40;;;0.30;;
68010;SDS011;54794;48.348;7.878;2023-05-07T16:10:47;0.40;;;0.30;;
68010;SDS011;54794;48.348;7.878;2023-05-07T16:14:18;0.38;;;0.30;;
68010;SDS011;54794;48.348;7.878;2023-05-07T16:16:45;0.40;;;0.40;;
68010;SDS011;54794;48.348;7.878;2023-05-07T16:22:57;0.75;;;0.38;;
68010;SDS011;54794;48.348;7.878;2023-05-07T16:33:39;0.47;;;0.30;;
68010;SDS011;54794;48.348;7.878;2023-05-07T16:37:38;0.25;;;0.20;;
68010;SDS011;54794;48.348;7.878;2023-05-07T16:41:03;0.30;;;0.30;;
68010;SDS011;54794;48.348;7.878;2023-05-07T16:44:02;0.50;;;0.30;;
68010;SDS011;54794;48.348;7.878;2023-05-07T16:46:36;0.52;;;0.30;;
68010;SDS011;54794;48.348;7.878;2023-05-07T16:49:17;0.38;;;0.30;;
68010;SDS011;54794;48.348;7.878;2023-05-07T17:06:41;0.38;;;0.30;;
68010;SDS011;54794;48.348;7.878;2023-05-07T17:17:12;0.85;;;0.40;;
68010;SDS011;54794;48.348;7.878;2023-05-07T17:20:35;0.25;;;0.20;;
68010;SDS011;54794;48.348;7.878;2023-05-07T18:44:15;0.60;;;0.45;;
68010;SDS011;54794;48.348;7.878;2023-05-07T18:46:51;0.93;;;0.65;;
68010;SDS011;54794;48.348;7.878;2023-05-07T18:49:39;2.00;;;0.30;;
68010;SDS011;54794;48.348;7.878;2023-05-07T18:52:51;0.60;;;0.35;;
68010;SDS011;54794;48.348;7.878;2023-05-07T18:55:41;1.60;;;0.30;;
68010;SDS011;54794;48.348;7.878;2023-05-07T18:58:34;0.40;;;0.30;;
68010;SDS011;54794;48.348;7.878;2023-05-07T19:01:09;0.68;;;0.32;;
68010;SDS011;54794;48.348;7.878;2023-05-07T19:03:59;0.40;;;0.30;;
68010;SDS011;54794;48.348;7.878;2023-05-07T19:06:46;0.30;;;0.20;;
68010;SDS011;54794;48.348;7.878;2023-05-07T19:09:52;0.70;;;0.40;;
68010;SDS011;54794;48.348;7.878;2023-05-07T19:13:09;0.57;;;0.38;;
68010;SDS011;54794;48.348;7.878;2023-05-07T19:16:00;0.52;;;0.32;;